createdAt,value
2019-01-09T06:20:01.481Z,3.57
2019-01-09T06:22:44.455Z,2.90
2019-01-09T06:25:36.436Z,3.10
2019-01-09T06:28:28.423Z,3.30
2019-01-09T06:31:20.383Z,3.27
2019-01-09T06:34:12.364Z,2.77
2019-01-09T06:37:04.338Z,3.67
2019-01-09T06:39:56.312Z,3.17
2019-01-09T06:42:48.287Z,3.37
2019-01-09T06:45:40.268Z,3.23
2019-01-09T06:48:32.296Z,3.33
2019-01-09T06:51:17.623Z,3.10
2019-01-09T06:54:02.581Z,3.93
2019-01-09T06:56:47.008Z,3.03
2019-01-09T06:59:31.470Z,3.50
2019-01-09T07:02:15.947Z,3.57
2019-01-09T07:05:00.836Z,3.93
2019-01-09T07:07:45.217Z,3.30
2019-01-09T07:10:30.505Z,3.63
2019-01-09T07:13:14.900Z,3.67
2019-01-09T07:15:59.204Z,3.13
2019-01-09T07:18:43.556Z,3.17
2019-01-09T07:21:28.074Z,3.40
2019-01-09T07:24:12.574Z,3.80
2019-01-09T07:26:57.436Z,3.07
2019-01-09T07:29:41.799Z,3.13
2019-01-09T07:32:27.036Z,3.00
2019-01-09T07:35:12.112Z,3.70
2019-01-09T07:37:57.416Z,3.63
2019-01-09T07:40:42.596Z,2.93
2019-01-09T07:43:27.558Z,3.33
2019-01-09T07:46:12.132Z,3.17
2019-01-09T07:48:57.344Z,4.03
2019-01-09T07:51:42.207Z,4.33
2019-01-09T07:54:26.627Z,3.43
2019-01-09T07:57:11.100Z,2.87
2019-01-09T07:59:55.483Z,3.80
2019-01-09T08:02:40.604Z,4.20
2019-01-09T08:05:25.676Z,3.93
2019-01-09T08:08:08.706Z,3.63
2019-01-09T08:11:00.694Z,4.03
2019-01-09T08:13:52.655Z,4.30
2019-01-09T08:16:44.919Z,4.00
2019-01-09T08:19:36.888Z,3.97
2019-01-09T08:22:28.859Z,4.37
2019-01-09T08:25:21.092Z,4.03
2019-01-09T08:28:13.052Z,4.60
2019-01-09T08:31:05.048Z,5.27
2019-01-09T08:33:57.015Z,3.67
2019-01-09T08:36:49.018Z,4.20
2019-01-09T08:39:40.974Z,3.83
2019-01-09T08:42:32.941Z,4.87
2019-01-09T08:45:25.199Z,4.63
2019-01-09T08:48:17.171Z,3.97
2019-01-09T08:51:02.051Z,3.90
2019-01-09T08:53:46.393Z,4.47
2019-01-09T08:56:29.431Z,4.50
2019-01-09T08:59:21.403Z,3.93
2019-01-09T09:02:13.383Z,3.90
2019-01-09T09:05:05.351Z,3.80
2019-01-09T09:08:16.625Z,3.67
2019-01-09T09:11:08.652Z,4.93
2019-01-09T09:14:00.912Z,6.03
2019-01-09T09:16:52.890Z,5.03
2019-01-09T09:19:44.872Z,5.33
2019-01-09T09:22:36.907Z,4.47
2019-01-09T09:25:28.868Z,5.00
2019-01-09T09:28:21.120Z,4.73
2019-01-09T09:31:13.088Z,4.73
2019-01-09T09:34:05.079Z,5.13
2019-01-09T09:36:57.063Z,4.77
2019-01-09T09:39:49.036Z,4.97
2019-01-09T09:42:41.027Z,4.37
2019-01-09T09:45:33.024Z,4.67
2019-01-09T09:48:25.039Z,4.60
2019-01-09T09:51:09.680Z,4.43
2019-01-09T09:53:54.668Z,4.93
2019-01-09T09:56:39.179Z,4.97
2019-01-09T09:59:23.712Z,3.57
2019-01-09T10:02:08.192Z,4.73
2019-01-09T10:04:53.183Z,3.80
2019-01-09T10:07:37.791Z,4.40
2019-01-09T10:10:22.254Z,4.23
2019-01-09T10:12:54.955Z,4.07
2019-01-09T10:15:48.663Z,4.17
2019-01-09T10:18:40.948Z,3.87
2019-01-09T10:21:32.934Z,4.53
2019-01-09T10:24:24.926Z,4.03
2019-01-09T10:26:57.707Z,4.37
2019-01-09T10:29:49.687Z,4.50
2019-01-09T10:32:41.677Z,4.10
2019-01-09T10:35:33.659Z,4.50
2019-01-09T10:38:25.644Z,4.60
2019-01-09T10:41:17.872Z,4.23
2019-01-09T10:44:09.834Z,3.63
2019-01-09T10:47:01.799Z,4.53
2019-01-09T10:49:53.780Z,3.77
2019-01-09T10:52:38.744Z,3.97
2019-01-09T10:55:23.394Z,4.00
2019-01-09T10:58:08.639Z,4.07
2019-01-09T11:00:53.939Z,4.03
2019-01-09T11:03:38.407Z,3.77
2019-01-09T11:06:23.560Z,3.80
2019-01-09T11:09:08.184Z,3.60
2019-01-09T11:11:52.524Z,4.00
2019-01-09T11:14:36.936Z,4.03
2019-01-09T11:17:21.912Z,4.27
2019-01-09T11:20:07.223Z,3.70
2019-01-09T11:22:51.683Z,4.27
2019-01-09T11:25:36.172Z,3.87
2019-01-09T11:28:20.592Z,3.30
2019-01-09T11:31:05.070Z,4.47
2019-01-09T11:33:50.385Z,3.17
2019-01-09T11:36:34.841Z,3.50
2019-01-09T11:39:19.216Z,2.93
2019-01-09T11:42:03.588Z,3.00
2019-01-09T11:44:48.608Z,3.40
2019-01-09T11:47:33.069Z,3.17
2019-01-09T11:50:18.268Z,2.47
2019-01-09T11:53:02.828Z,3.57
2019-01-09T11:55:47.216Z,3.20
2019-01-09T11:58:31.649Z,2.80
2019-01-09T12:01:16.723Z,2.53
2019-01-09T12:04:01.180Z,2.77
2019-01-09T12:06:45.703Z,2.80
2019-01-09T12:09:31.007Z,2.67
2019-01-09T12:12:15.364Z,2.40
2019-01-09T12:14:59.873Z,3.03
2019-01-09T12:17:44.466Z,3.33
2019-01-09T12:20:29.036Z,3.23
2019-01-09T12:23:13.397Z,2.73
2019-01-09T12:25:58.691Z,2.90
2019-01-09T12:28:43.140Z,2.70
2019-01-09T12:31:28.305Z,2.70
2019-01-09T12:34:12.705Z,2.60
2019-01-09T12:36:57.363Z,2.97
2019-01-09T12:39:41.816Z,2.60
2019-01-09T12:42:26.775Z,2.77
2019-01-09T12:45:10.578Z,2.87
2019-01-09T12:48:02.535Z,3.07
2019-01-09T12:50:47.508Z,2.70
2019-01-09T12:53:34.080Z,3.33
2019-01-09T12:56:18.999Z,2.90
2019-01-09T12:59:04.175Z,2.60
2019-01-09T13:01:48.595Z,2.70
2019-01-09T13:04:33.084Z,2.53
2019-01-09T13:07:17.512Z,2.77
2019-01-09T13:10:01.897Z,2.40
2019-01-09T13:12:47.087Z,2.63
2019-01-09T13:15:30.135Z,2.40
2019-01-09T13:18:22.124Z,2.40
2019-01-09T13:21:14.114Z,2.60
2019-01-09T13:24:06.072Z,2.70
2019-01-09T13:26:58.064Z,2.50
2019-01-09T13:29:50.037Z,2.20
2019-01-09T13:32:42.020Z,2.70
2019-01-09T13:35:33.990Z,2.73
2019-01-09T13:38:25.963Z,2.47
2019-01-09T13:41:17.959Z,2.73
2019-01-09T13:44:09.919Z,2.83
2019-01-09T13:47:01.918Z,3.10
2019-01-09T13:49:53.882Z,2.70
2019-01-09T13:52:38.729Z,2.50
2019-01-09T13:55:23.269Z,2.23
2019-01-09T13:58:08.531Z,3.07
2019-01-09T14:00:53.711Z,2.53
2019-01-09T14:03:38.284Z,2.17
2019-01-09T14:06:22.696Z,2.80
2019-01-09T14:09:07.313Z,2.60
2019-01-09T14:11:51.728Z,2.53
2019-01-09T14:14:36.212Z,2.97
2019-01-09T14:17:20.661Z,2.50
2019-01-09T14:20:05.928Z,2.83
2019-01-09T14:22:51.185Z,2.50
2019-01-09T14:25:34.256Z,3.20
2019-01-09T14:28:26.231Z,2.80
2019-01-09T14:31:18.448Z,2.30
2019-01-09T14:34:10.663Z,2.90
2019-01-09T14:37:02.633Z,2.60
2019-01-09T14:39:54.881Z,2.40
2019-01-09T14:42:46.852Z,2.23
2019-01-09T14:45:38.823Z,2.60
2019-01-09T14:48:30.807Z,2.13
2019-01-09T14:51:15.863Z,2.30
2019-01-09T14:53:59.146Z,3.13
2019-01-09T14:56:51.094Z,2.50
2019-01-09T14:59:43.068Z,2.53
2019-01-09T15:02:35.073Z,2.20
2019-01-09T15:05:27.027Z,2.60
2019-01-09T15:08:19.333Z,3.60
2019-01-09T15:11:11.285Z,2.23
2019-01-09T15:14:03.445Z,2.70
2019-01-09T15:16:55.399Z,2.40
2019-01-09T15:19:47.458Z,2.47
2019-01-09T15:22:39.697Z,2.57
2019-01-09T15:25:31.675Z,2.33
2019-01-09T15:28:23.661Z,2.20
2019-01-09T15:31:15.636Z,2.80
2019-01-09T15:34:07.619Z,2.07
2019-01-09T15:36:40.518Z,2.27
2019-01-09T15:39:13.292Z,2.87
2019-01-09T15:41:45.966Z,2.20
2019-01-09T15:44:18.655Z,2.40
2019-01-09T15:46:51.299Z,2.40
2019-01-09T15:49:24.035Z,2.67
2019-01-09T15:51:56.692Z,2.17
2019-01-09T15:54:29.363Z,2.27
2019-01-09T15:57:02.027Z,2.50
2019-01-09T15:59:35.228Z,3.20
2019-01-09T16:02:07.908Z,2.33
2019-01-09T16:04:40.839Z,2.47
2019-01-09T16:07:13.479Z,2.70
2019-01-09T16:09:46.383Z,2.80
2019-01-09T16:12:19.043Z,4.00
2019-01-09T16:14:51.724Z,2.90
2019-01-09T16:17:24.382Z,3.03
2019-01-09T16:19:57.048Z,2.67
2019-01-09T16:22:29.699Z,3.27
2019-01-09T16:25:02.427Z,2.40
2019-01-09T16:27:35.103Z,2.63
2019-01-09T16:30:13.005Z,3.07
2019-01-09T16:32:45.676Z,3.10
2019-01-09T16:35:20.613Z,2.53
2019-01-09T16:37:52.783Z,2.67
2019-01-09T16:40:25.464Z,2.77
2019-01-09T16:42:58.119Z,3.10
2019-01-09T16:45:30.782Z,2.87
2019-01-09T16:48:03.710Z,2.90
2019-01-09T16:50:36.386Z,2.80
2019-01-09T16:53:09.039Z,3.00
2019-01-09T16:55:41.722Z,2.83
2019-01-09T16:58:14.375Z,2.50
2019-01-09T17:00:47.287Z,2.90
2019-01-09T17:03:19.945Z,2.67
2019-01-09T17:05:52.606Z,3.33
2019-01-09T17:08:25.256Z,2.70
2019-01-09T17:10:57.947Z,2.70
2019-01-09T17:13:30.708Z,2.60
2019-01-09T17:16:03.361Z,3.23
2019-01-09T17:18:36.106Z,3.50
2019-01-09T17:21:08.766Z,3.50
2019-01-09T17:23:41.687Z,3.20
2019-01-09T17:26:14.582Z,3.30
2019-01-09T17:28:47.239Z,3.53
2019-01-09T17:31:19.914Z,3.17
2019-01-09T17:33:52.843Z,2.97
2019-01-09T17:36:25.507Z,2.60
2019-01-09T17:38:58.165Z,2.70
2019-01-09T17:41:30.828Z,3.13
2019-01-09T17:44:03.603Z,3.10
2019-01-09T17:46:36.270Z,3.03
2019-01-09T17:49:08.919Z,2.90
2019-01-09T17:51:41.594Z,4.03
2019-01-09T17:54:14.624Z,3.87
2019-01-09T17:56:47.331Z,3.20
2019-01-09T17:59:19.985Z,3.40
2019-01-09T18:01:52.651Z,2.93
2019-01-09T18:04:25.300Z,3.23
2019-01-09T18:06:57.982Z,3.30
2019-01-09T18:09:30.914Z,3.57
2019-01-09T18:12:04.237Z,3.03
2019-01-09T18:14:36.900Z,3.40
2019-01-09T18:17:09.619Z,4.00
2019-01-09T18:19:42.520Z,3.30
2019-01-09T18:22:15.183Z,3.30
2019-01-09T18:24:48.139Z,4.00
2019-01-09T18:27:20.819Z,3.67
2019-01-09T18:29:53.618Z,3.77
2019-01-09T18:32:39.844Z,3.97
2019-01-09T18:35:23.915Z,3.20
2019-01-09T18:38:23.971Z,4.40
2019-01-09T18:41:21.650Z,4.03
2019-01-09T18:44:10.142Z,3.50
2019-01-09T18:47:21.475Z,3.47
2019-01-09T18:50:24.406Z,3.63
2019-01-09T18:53:19.083Z,3.30
2019-01-09T18:55:52.058Z,3.00
2019-01-09T18:58:24.755Z,3.47
2019-01-09T19:00:57.672Z,3.97
2019-01-09T19:03:30.361Z,3.77
2019-01-09T19:06:03.631Z,4.13
2019-01-09T19:08:36.706Z,3.33
2019-01-09T19:11:09.398Z,3.40
2019-01-09T19:13:42.114Z,3.93
2019-01-09T19:16:14.774Z,3.27
2019-01-09T19:18:47.669Z,3.50
2019-01-09T19:21:20.321Z,3.47
2019-01-09T19:23:52.999Z,4.37
2019-01-09T19:26:25.937Z,3.47
2019-01-09T19:28:58.630Z,3.87
2019-01-09T19:31:31.339Z,3.10
2019-01-09T19:34:04.247Z,3.97
2019-01-09T19:36:36.907Z,3.47
2019-01-09T19:39:09.667Z,3.37
2019-01-09T19:41:42.430Z,3.47
2019-01-09T19:44:15.131Z,3.07
2019-01-09T19:46:48.019Z,2.90
2019-01-09T19:49:20.981Z,3.47
2019-01-09T19:51:53.642Z,3.97
2019-01-09T19:54:26.807Z,3.17
2019-01-09T19:56:59.582Z,3.63
2019-01-09T19:59:32.362Z,2.77
2019-01-09T20:02:05.053Z,3.00
2019-01-09T20:04:37.757Z,3.70
2019-01-09T20:07:10.432Z,3.03
2019-01-09T20:09:43.195Z,4.03
2019-01-09T20:12:16.130Z,3.73
2019-01-09T20:14:49.073Z,3.60
2019-01-09T20:17:21.831Z,3.20
2019-01-09T20:19:54.552Z,3.87
2019-01-09T20:22:27.371Z,3.43
2019-01-09T20:25:00.466Z,3.30
2019-01-09T20:27:33.155Z,3.10
2019-01-09T20:30:08.699Z,3.40
2019-01-09T20:32:42.414Z,3.20
2019-01-09T20:35:15.629Z,3.27
2019-01-09T20:37:48.840Z,3.20
2019-01-09T20:40:21.525Z,3.27
2019-01-09T20:42:54.215Z,4.30
2019-01-09T20:45:26.916Z,3.37
2019-01-09T20:47:59.628Z,3.33
2019-01-09T20:50:32.338Z,3.37
2019-01-09T20:53:05.025Z,3.23
2019-01-09T20:55:37.692Z,3.37
2019-01-09T20:58:10.364Z,3.47
2019-01-09T21:00:43.043Z,3.23
2019-01-09T21:03:15.963Z,3.10
2019-01-09T21:05:50.487Z,2.90
